IGM weather

Kingman Airport
Kingman, Arizona, United States

Public forecast

Using degrees Fahrenheit for public forecast. Weather courtesy of forecast.io.

METAR (pilot weather report)

Retrieved 2019/08/26 04:51 UTC (2 hours ago):

KIGM 260451Z AUTO 22012KT 10SM CLR 30/13 A3002 RMK AO2 SLP086 T03000128

TAF (pilot weather forecast)

Closest forecast is Laughlin Bullhead International Airport, 31.1 nm (57.6 km) W. Retrieved 2019/08/26 06:22 UTC (26 minutes ago):

TAF KIFP 260520Z 2606/2706 17009KT P6SM SKC FM261500 20007KT P6SM SKC FM270400 26007KT P6SM SKC